This is the latest recevied weather packets stored in our database for station/object OH6HPS. If no packets are shown the sender has not sent any weather packets the latest 10 day(s).
| Time | Temp. | Humidity | Pressure | Rain* | Wind** | Luminosity | Snow |
|---|---|---|---|---|---|---|---|
| 1778103346 | -0.56° C | 71% | 1014.1 hPa | 0 mm | - | 0 W/m² | - |
| 1778102747 | -0.56° C | 70% | 1014.1 hPa | 0 mm | - | 0 W/m² | - |
| 1778102147 | -0.56° C | 70% | 1014.1 hPa | 0 mm | - | 0 W/m² | - |
| 1778101547 | 0° C | 69% | 1014.1 hPa | 0 mm | - | 0 W/m² | - |
| 1778100946 | 0° C | 68% | 1013.9 hPa | 0 mm | - | 0 W/m² | - |
| 1778100346 | 0.56° C | 67% | 1013.9 hPa | 0 mm | - | 0 W/m² | - |
| 1778099745 | 0.56° C | 67% | 1013.9 hPa | 0 mm | - | 0 W/m² | - |
| 1778099144 | 1.11° C | 67% | 1013.9 hPa | 0 mm | - | 0 W/m² | - |
| 1778098545 | 1.67° C | 65% | 1014 hPa | 0 mm | - | 0 W/m² | - |
| 1778097944 | 1.67° C | 64% | 1014.1 hPa | 0 mm | - | 0 W/m² | - |
| 1778097345 | 2.22° C | 63% | 1014.1 hPa | 0 mm | - | 0 W/m² | - |
| 1778096743 | 2.78° C | 61% | 1014.1 hPa | 0 mm | - | 0 W/m² | - |
| 1778096144 | 3.33° C | 59% | 1014 hPa | 0 mm | - | 0 W/m² | - |
| 1778095543 | 3.89° C | 57% | 1014 hPa | 0 mm | - | 0 W/m² | - |
| 1778094944 | 4.44° C | 54% | 1013.9 hPa | 0 mm | - | 0 W/m² | - |
| 1778094343 | 5° C | 51% | 1013.9 hPa | 0 mm | - | 0 W/m² | - |
| 1778093743 | 5.56° C | 51% | 1013.8 hPa | 0 mm | - | 0 W/m² | - |
| 1778093143 | 5.56° C | 48% | 1013.6 hPa | 0 mm | - | 7 W/m² | - |
| 1778092544 | 6.11° C | 45% | 1013.5 hPa | 0 mm | - | 9 W/m² | - |
| 1778091940 | 6.67° C | 46% | 1013.5 hPa | 0 mm | - | 12 W/m² | - |
| 1778091341 | 7.22° C | 44% | 1013.4 hPa | 0 mm | - | 16 W/m² | - |
| 1778090742 | 7.78° C | 43% | 1013.4 hPa | 0 mm | - | 18 W/m² | - |
| 1778090141 | 8.33° C | 38% | 1013.3 hPa | 0 mm | - | 19 W/m² | - |
| 1778089541 | 9.44° C | 36% | 1013.2 hPa | 0 mm | - | 21 W/m² | - |
| 1778088941 | 10° C | 29% | 1013.2 hPa | 0 mm | - | 30 W/m² | - |
* Rain latest hour (hover to see other rain measurements)
** Current wind speed in m/s (hover to see current wind gust speed)